Details for Ryanair at LIRF




Go Back


Latest METAR
Local Time

LIRF 221050Z 28007KT CAVOK 27/18 Q1017 NOSIG
22/09/2018, 13:23:41

Description
Results
Ryanair Logo
Number of Pilots based at LIRF
0 Pilots Based here
Number of Ryanair Flights Departed from LIRF
8 Flights Departed
Number of Ryanair Flights Arrived at LIRF
6 Flights Arrived
Number of Ryanair Schedules Departing from LIRF
59 Schedules
Number of Ryanair Schedules Arriving at LIRF
56 Schedules
Number of Ryanair Schedules Departing from LIRF availible today
25 Schedules Today
Number of Ryanair Schedules Arriving at LIRF availible today
25 Schedules Today
Average Landing Rate at LIRF
-199 fpm
Ryanair Average Landing Rate at LIRF
-128 fpm
Total Fuel Purchased at LIRF by Ryanair
53,537.05 kgs / 118,027.78 lbs

Pilots Based at LIRF


Pilot ID
Pilot Name
Pilot Rank
No. of Flights
No. of Flying Hours
There are no pilots assigned to this hub!   Will you be the first?
Content